Time;durP1;ratioP1;P1;durP2;ratioP2;P2;SDS_P1;SDS_P2;PMS_P1;PMS_P2;Temp;Humidity;BMP_temperature;BMP_pressure;BME280_temperature;BME280_humidity;BME280_pressure;Samples;Min_cycle;Max_cycle;Signal;HPM_P1;HPM_P2
2023/09/06 00:01:24;;;;;;;8.82;7.05;;;;;;;;;;5107989;28;20106;-59
2023/09/06 00:03:50;;;;;;;9.73;6.28;;;;;;;;;;5093938;28;20024;-59
2023/09/06 00:06:16;;;;;;;8.35;6.70;;;;;;;;;;5094713;28;20036;-59
2023/09/06 00:08:43;;;;;;;9.07;6.80;;;;;;;;;;5114004;28;20030;-59
2023/09/06 00:11:09;;;;;;;10.55;7.35;;;;;;;;;;5094907;28;20020;-59
2023/09/06 00:13:36;;;;;;;13.18;7.25;;;;;;;;;;5093743;28;20043;-60
2023/09/06 00:16:02;;;;;;;10.23;7.22;;;;;;;;;;5093502;28;20359;-59
2023/09/06 00:18:28;;;;;;;8.15;6.70;;;;;;;;;;5107836;28;20043;-59
2023/09/06 00:20:57;;;;;;;7.97;6.10;;;;;;;;;;5085108;28;20024;-59
2023/09/06 00:23:24;;;;;;;13.50;7.82;;;;;;;;;;5122121;27;20041;-59
2023/09/06 00:25:50;;;;;;;8.23;7.13;;;;;;;;;;5093514;28;20065;-59
2023/09/06 00:28:17;;;;;;;12.48;6.57;;;;;;;;;;5081082;28;20066;-59
2023/09/06 00:30:46;;;;;;;9.70;6.15;;;;;;;;;;5112240;28;20392;-59
2023/09/06 00:33:13;;;;;;;8.70;6.72;;;;;;;;;;5127488;27;20019;-59
2023/09/06 00:35:39;;;;;;;8.65;6.78;;;;;;;;;;5093616;28;20081;-59
2023/09/06 00:38:06;;;;;;;9.05;6.20;;;;;;;;;;5093258;28;20031;-59
2023/09/06 00:40:36;;;;;;;10.85;7.68;;;;;;;;;;5093111;28;20012;-59
2023/09/06 00:43:03;;;;;;;11.48;7.82;;;;;;;;;;5093002;28;20030;-59
2023/09/06 00:45:38;;;;;;;10.82;7.70;;;;;;;;;;5093059;28;20378;-59
2023/09/06 00:48:05;;;;;;;12.73;8.25;;;;;;;;;;5085010;28;20495;-59
2023/09/06 00:50:32;;;;;;;12.30;7.93;;;;;;;;;;5093802;28;20097;-59
2023/09/06 00:52:59;;;;;;;12.30;7.93;;;;;;;;;;5106015;28;20016;-59
2023/09/06 00:55:25;;;;;;;12.40;7.30;;;;;;;;;;5093414;28;20035;-59
2023/09/06 00:57:52;;;;;;;10.18;7.38;;;;;;;;;;5092883;28;20028;-59
2023/09/06 01:00:19;;;;;;;9.13;7.53;;;;;;;;;;5092915;28;20035;-59
2023/09/06 01:02:47;;;;;;;8.90;7.20;;;;;;;;;;5092916;28;20462;-59
2023/09/06 01:05:13;;;;;;;11.45;8.40;;;;;;;;;;5092900;28;20028;-59
2023/09/06 01:07:40;;;;;;;14.15;8.38;;;;;;;;;;5092813;28;20027;-59
2023/09/06 01:10:06;;;;;;;12.63;8.05;;;;;;;;;;5092786;28;20024;-59
2023/09/06 01:12:34;;;;;;;14.52;7.97;;;;;;;;;;5107214;28;20019;-59
2023/09/06 01:15:00;;;;;;;9.45;7.88;;;;;;;;;;5088076;28;20032;-59
2023/09/06 01:17:27;;;;;;;11.05;7.93;;;;;;;;;;5092746;28;20470;-59
2023/09/06 01:20:02;;;;;;;10.93;7.30;;;;;;;;;;5092681;28;20107;-59
2023/09/06 01:22:40;;;;;;;14.35;7.40;;;;;;;;;;5082623;28;20028;-59
2023/09/06 01:25:08;;;;;;;10.60;7.68;;;;;;;;;;5088343;28;20020;-59
2023/09/06 01:27:34;;;;;;;10.30;7.40;;;;;;;;;;5096146;28;20575;-59
2023/09/06 01:30:00;;;;;;;11.15;7.20;;;;;;;;;;5083580;28;20485;-59
2023/09/06 01:32:26;;;;;;;11.82;7.60;;;;;;;;;;5105326;28;20539;-59
2023/09/06 01:34:54;;;;;;;9.63;7.43;;;;;;;;;;5095117;28;20070;-59
2023/09/06 01:37:21;;;;;;;10.15;7.30;;;;;;;;;;5095347;28;20023;-59
2023/09/06 01:39:47;;;;;;;9.82;8.00;;;;;;;;;;5095938;28;20028;-59
2023/09/06 01:42:13;;;;;;;9.38;7.18;;;;;;;;;;5095777;28;20028;-59
2023/09/06 01:44:39;;;;;;;9.30;7.47;;;;;;;;;;5095801;28;20106;-59
2023/09/06 01:47:06;;;;;;;12.00;7.82;;;;;;;;;;5110002;28;20179;-59
2023/09/06 01:49:32;;;;;;;12.20;7.45;;;;;;;;;;5095748;28;20032;-59
2023/09/06 01:52:01;;;;;;;10.10;7.35;;;;;;;;;;5107469;27;20027;-59
2023/09/06 01:54:27;;;;;;;9.95;6.93;;;;;;;;;;5097181;28;20496;-59
2023/09/06 01:56:53;;;;;;;10.07;6.85;;;;;;;;;;5096360;28;20030;-59
2023/09/06 01:59:19;;;;;;;9.43;6.72;;;;;;;;;;5096274;28;20016;-59
2023/09/06 02:01:45;;;;;;;11.55;6.80;;;;;;;;;;5096256;28;20426;-59
2023/09/06 02:04:11;;;;;;;11.90;7.03;;;;;;;;;;5096081;28;20032;-59
2023/09/06 02:06:37;;;;;;;11.35;6.90;;;;;;;;;;5096175;28;20016;-59
2023/09/06 02:09:04;;;;;;;7.30;6.57;;;;;;;;;;5096422;28;20039;-59
2023/09/06 02:11:31;;;;;;;8.43;6.82;;;;;;;;;;5095865;28;20493;-59
2023/09/06 02:13:57;;;;;;;10.75;7.55;;;;;;;;;;5110307;28;20027;-59
2023/09/06 02:16:24;;;;;;;9.57;7.43;;;;;;;;;;5095968;28;20020;-59
2023/09/06 02:18:50;;;;;;;11.75;7.55;;;;;;;;;;5095859;28;20470;-59
2023/09/06 02:21:16;;;;;;;12.05;7.70;;;;;;;;;;5095813;28;20028;-59
2023/09/06 02:23:42;;;;;;;10.98;7.63;;;;;;;;;;5095890;28;20024;-59
2023/09/06 02:26:08;;;;;;;9.35;7.22;;;;;;;;;;5110125;28;20068;-59
2023/09/06 02:28:35;;;;;;;11.68;7.65;;;;;;;;;;5095684;28;20020;-59
2023/09/06 02:31:01;;;;;;;12.45;7.40;;;;;;;;;;5095619;28;20035;-59
2023/09/06 02:33:28;;;;;;;11.27;8.15;;;;;;;;;;5095813;28;20024;-59
2023/09/06 02:35:54;;;;;;;9.25;8.15;;;;;;;;;;5095607;28;20031;-59
2023/09/06 02:38:20;;;;;;;10.10;7.68;;;;;;;;;;5094062;28;20423;-59
2023/09/06 02:40:46;;;;;;;13.15;8.80;;;;;;;;;;5095485;28;20032;-59
2023/09/06 02:43:13;;;;;;;10.48;7.82;;;;;;;;;;5095125;28;20027;-59
2023/09/06 02:45:39;;;;;;;8.88;7.97;;;;;;;;;;5095339;28;20504;-59
2023/09/06 02:48:15;;;;;;;10.30;7.95;;;;;;;;;;5095102;28;20054;-59
2023/09/06 02:50:44;;;;;;;9.02;7.85;;;;;;;;;;5097858;28;20123;-59
2023/09/06 02:53:20;;;;;;;9.65;7.65;;;;;;;;;;5106432;28;20016;-59
2023/09/06 02:55:48;;;;;;;10.68;7.75;;;;;;;;;;5099667;28;20032;-59
2023/09/06 02:58:15;;;;;;;12.27;8.07;;;;;;;;;;5116216;27;20012;-59
2023/09/06 03:00:43;;;;;;;10.07;8.40;;;;;;;;;;5115695;27;20019;-59
2023/09/06 03:03:10;;;;;;;11.32;8.65;;;;;;;;;;5125446;27;20020;-59
2023/09/06 03:05:42;;;;;;;10.38;8.35;;;;;;;;;;5117409;27;20027;-59
2023/09/06 03:08:12;;;;;;;11.20;9.43;;;;;;;;;;5106877;27;20424;-59
2023/09/06 03:10:39;;;;;;;12.00;9.05;;;;;;;;;;5118388;27;20074;-59
2023/09/06 03:13:05;;;;;;;9.50;8.50;;;;;;;;;;5124945;27;20477;-59
2023/09/06 03:15:31;;;;;;;10.23;8.80;;;;;;;;;;5122105;27;20036;-59
2023/09/06 03:17:58;;;;;;;12.77;8.68;;;;;;;;;;5103267;28;20016;-59
2023/09/06 03:20:34;;;;;;;10.35;9.25;;;;;;;;;;5108890;28;20363;-59
2023/09/06 03:23:17;;;;;;;11.05;8.65;;;;;;;;;;5094608;28;20084;-59
2023/09/06 03:26:01;;;;;;;11.55;9.05;;;;;;;;;;5094728;28;20047;-59
2023/09/06 03:28:28;;;;;;;11.30;9.02;;;;;;;;;;5093868;28;20359;-59
2023/09/06 03:30:58;;;;;;;9.50;8.32;;;;;;;;;;5107288;27;20476;-59
2023/09/06 03:33:25;;;;;;;10.63;8.50;;;;;;;;;;5107221;27;20385;-59
2023/09/06 03:35:51;;;;;;;10.65;8.73;;;;;;;;;;5108635;27;20012;-59
2023/09/06 03:38:17;;;;;;;10.10;8.30;;;;;;;;;;5115233;27;20118;-59
2023/09/06 03:40:44;;;;;;;10.70;8.15;;;;;;;;;;5097001;28;20016;-59
2023/09/06 03:43:17;;;;;;;9.65;8.25;;;;;;;;;;5094416;28;20031;-59
2023/09/06 03:45:44;;;;;;;10.00;7.97;;;;;;;;;;5108361;28;20024;-59
2023/09/06 03:48:12;;;;;;;11.98;7.43;;;;;;;;;;5093630;28;20052;-59
2023/09/06 03:50:38;;;;;;;9.02;6.90;;;;;;;;;;5080949;28;20043;-59
2023/09/06 03:53:04;;;;;;;10.48;7.25;;;;;;;;;;5094110;28;20465;-59
2023/09/06 03:55:34;;;;;;;9.15;7.32;;;;;;;;;;5094102;28;20021;-59
2023/09/06 03:58:04;;;;;;;9.85;7.78;;;;;;;;;;5099989;28;20024;-59
2023/09/06 04:00:31;;;;;;;11.50;8.00;;;;;;;;;;5102012;28;20031;-58
2023/09/06 04:02:57;;;;;;;11.90;8.27;;;;;;;;;;5093709;28;20035;-58
2023/09/06 04:05:25;;;;;;;10.20;8.00;;;;;;;;;;5113703;27;20020;-59
2023/09/06 04:07:53;;;;;;;11.95;7.63;;;;;;;;;;5105708;27;20035;-59
2023/09/06 04:10:21;;;;;;;9.80;7.25;;;;;;;;;;5117495;27;20032;-59
2023/09/06 04:12:50;;;;;;;7.85;7.15;;;;;;;;;;5122281;27;20469;-59
2023/09/06 04:15:16;;;;;;;7.70;6.93;;;;;;;;;;5107950;27;20015;-59
2023/09/06 04:17:42;;;;;;;7.90;7.10;;;;;;;;;;5108036;27;20020;-59
2023/09/06 04:20:19;;;;;;;9.05;7.35;;;;;;;;;;5127471;27;20026;-59
2023/09/06 04:22:46;;;;;;;8.18;7.13;;;;;;;;;;5113929;28;20019;-58
2023/09/06 04:25:12;;;;;;;9.82;7.78;;;;;;;;;;5101634;28;20028;-58
2023/09/06 04:27:39;;;;;;;8.60;7.70;;;;;;;;;;5118392;27;20069;-60
2023/09/06 04:30:06;;;;;;;9.50;7.70;;;;;;;;;;5088351;28;20032;-60
2023/09/06 04:32:34;;;;;;;10.55;8.15;;;;;;;;;;5107132;28;20019;-61
2023/09/06 04:35:00;;;;;;;11.15;7.65;;;;;;;;;;5106280;28;20106;-60
2023/09/06 04:37:26;;;;;;;8.65;7.75;;;;;;;;;;5094688;28;20369;-60
2023/09/06 04:39:53;;;;;;;8.30;7.50;;;;;;;;;;5093244;28;20031;-60
2023/09/06 04:42:19;;;;;;;9.88;7.72;;;;;;;;;;5105050;27;20034;-60
2023/09/06 04:44:45;;;;;;;9.13;7.15;;;;;;;;;;5115934;27;20466;-58
2023/09/06 04:47:15;;;;;;;9.27;7.30;;;;;;;;;;5093154;28;20139;-58
2023/09/06 04:49:42;;;;;;;11.15;8.27;;;;;;;;;;5095346;28;20366;-58
2023/09/06 04:52:08;;;;;;;8.32;7.18;;;;;;;;;;5099732;28;20023;-58
2023/09/06 04:54:34;;;;;;;9.02;8.10;;;;;;;;;;5092955;28;20032;-58
2023/09/06 04:57:00;;;;;;;9.55;7.35;;;;;;;;;;5092821;28;20020;-58
2023/09/06 04:59:26;;;;;;;9.18;6.93;;;;;;;;;;5095829;28;20019;-58
2023/09/06 05:01:52;;;;;;;8.70;6.55;;;;;;;;;;5103668;28;20127;-58
2023/09/06 05:04:19;;;;;;;9.75;6.93;;;;;;;;;;5092996;28;20032;-58
2023/09/06 05:06:45;;;;;;;12.70;7.25;;;;;;;;;;5092953;28;20501;-58
2023/09/06 05:09:15;;;;;;;8.32;6.88;;;;;;;;;;5093127;28;20062;-58
2023/09/06 05:11:41;;;;;;;9.30;6.65;;;;;;;;;;5092879;28;20462;-58
2023/09/06 05:14:07;;;;;;;8.95;6.82;;;;;;;;;;5092766;28;20073;-58
2023/09/06 05:16:33;;;;;;;11.32;7.95;;;;;;;;;;5092702;28;20020;-58
2023/09/06 05:18:59;;;;;;;10.60;7.00;;;;;;;;;;5092880;28;20462;-58
2023/09/06 05:21:25;;;;;;;8.48;7.32;;;;;;;;;;5092619;28;20546;-60
2023/09/06 05:23:51;;;;;;;10.25;7.00;;;;;;;;;;5092667;28;20020;-60
2023/09/06 05:26:17;;;;;;;7.82;6.30;;;;;;;;;;5094484;28;20023;-59
2023/09/06 05:28:43;;;;;;;7.25;5.95;;;;;;;;;;5092646;28;20024;-60
2023/09/06 05:31:09;;;;;;;10.00;5.85;;;;;;;;;;5092834;28;20035;-60
2023/09/06 05:33:35;;;;;;;8.00;7.00;;;;;;;;;;5110170;28;20027;-60
2023/09/06 05:36:03;;;;;;;8.18;6.45;;;;;;;;;;5103468;28;20385;-60
2023/09/06 05:38:29;;;;;;;12.20;6.32;;;;;;;;;;5095682;28;20021;-60
2023/09/06 05:40:55;;;;;;;9.07;6.47;;;;;;;;;;5118110;28;20104;-61
2023/09/06 05:43:21;;;;;;;8.75;6.85;;;;;;;;;;5092527;28;20504;-61
2023/09/06 05:45:47;;;;;;;12.20;6.75;;;;;;;;;;5092555;28;20017;-61
2023/09/06 05:48:13;;;;;;;11.73;7.15;;;;;;;;;;5092355;28;20063;-61
2023/09/06 05:50:39;;;;;;;8.57;6.38;;;;;;;;;;5092394;28;20111;-61
2023/09/06 05:53:05;;;;;;;6.72;6.03;;;;;;;;;;5092654;28;20492;-61
2023/09/06 05:55:31;;;;;;;9.68;6.38;;;;;;;;;;5092705;28;20024;-61
2023/09/06 05:57:57;;;;;;;10.82;6.97;;;;;;;;;;5092488;28;20553;-61
2023/09/06 06:00:24;;;;;;;8.77;6.43;;;;;;;;;;5092560;28;20028;-61
2023/09/06 06:02:50;;;;;;;7.13;5.93;;;;;;;;;;5092461;28;20043;-61
2023/09/06 06:05:18;;;;;;;7.20;6.35;;;;;;;;;;5092513;28;20497;-61
2023/09/06 06:07:45;;;;;;;11.32;6.80;;;;;;;;;;5092261;28;20501;-61
2023/09/06 06:10:11;;;;;;;11.32;6.68;;;;;;;;;;5092338;28;20352;-60
2023/09/06 06:12:38;;;;;;;11.68;7.15;;;;;;;;;;5109028;28;20020;-61
2023/09/06 06:15:05;;;;;;;10.23;7.32;;;;;;;;;;5095925;28;20103;-61
2023/09/06 06:17:31;;;;;;;9.90;7.57;;;;;;;;;;5095866;28;20529;-60
2023/09/06 06:19:57;;;;;;;10.23;7.63;;;;;;;;;;5096231;28;20166;-61
2023/09/06 06:22:23;;;;;;;12.27;8.00;;;;;;;;;;5095997;28;20046;-60
2023/09/06 06:24:50;;;;;;;11.30;7.82;;;;;;;;;;5095714;28;20031;-61
2023/09/06 06:27:16;;;;;;;10.50;8.90;;;;;;;;;;5095822;28;20528;-61
2023/09/06 06:29:42;;;;;;;12.60;8.45;;;;;;;;;;5095624;28;20036;-61
2023/09/06 06:32:08;;;;;;;10.93;8.80;;;;;;;;;;5095941;28;20489;-60
2023/09/06 06:34:38;;;;;;;11.20;8.38;;;;;;;;;;5107210;28;20546;-60
2023/09/06 06:37:04;;;;;;;12.32;8.60;;;;;;;;;;5097471;28;20543;-61
2023/09/06 06:39:30;;;;;;;11.07;9.05;;;;;;;;;;5095579;28;20032;-61
2023/09/06 06:41:56;;;;;;;13.77;9.02;;;;;;;;;;5095379;28;20035;-61
2023/09/06 06:44:22;;;;;;;9.80;8.77;;;;;;;;;;5095281;28;20447;-61
2023/09/06 06:46:48;;;;;;;16.67;9.73;;;;;;;;;;5095103;28;20048;-58
2023/09/06 06:49:15;;;;;;;12.30;10.13;;;;;;;;;;5095268;28;20032;-59
2023/09/06 06:51:41;;;;;;;12.93;10.20;;;;;;;;;;5095045;28;20020;-57
2023/09/06 06:54:07;;;;;;;13.20;9.55;;;;;;;;;;5124024;27;20463;-58
2023/09/06 06:56:34;;;;;;;16.00;11.07;;;;;;;;;;5108888;28;20102;-57
2023/09/06 06:59:00;;;;;;;12.48;10.20;;;;;;;;;;5109999;28;20027;-57
2023/09/06 07:01:27;;;;;;;14.50;11.52;;;;;;;;;;5094844;28;20024;-57
2023/09/06 07:03:54;;;;;;;16.20;10.30;;;;;;;;;;5094273;28;20039;-58
2023/09/06 07:06:20;;;;;;;14.57;10.93;;;;;;;;;;5094565;28;20065;-58
2023/09/06 07:08:46;;;;;;;18.20;11.30;;;;;;;;;;5083207;28;20374;-57
2023/09/06 07:11:12;;;;;;;16.20;11.00;;;;;;;;;;5094529;28;20111;-58
2023/09/06 07:13:38;;;;;;;16.40;12.77;;;;;;;;;;5094677;28;20028;-58
2023/09/06 07:16:04;;;;;;;18.40;11.95;;;;;;;;;;5094728;28;20031;-58
2023/09/06 07:18:31;;;;;;;14.45;11.93;;;;;;;;;;5094957;28;20020;-57
2023/09/06 07:20:57;;;;;;;17.75;11.55;;;;;;;;;;5094595;28;20460;-58
2023/09/06 07:23:23;;;;;;;15.98;11.02;;;;;;;;;;5093921;28;20024;-58
2023/09/06 07:25:49;;;;;;;13.98;11.18;;;;;;;;;;5094490;28;20072;-58
2023/09/06 07:28:15;;;;;;;15.85;10.77;;;;;;;;;;5082235;28;20020;-58
2023/09/06 07:30:42;;;;;;;12.40;10.85;;;;;;;;;;5114843;28;20032;-58
2023/09/06 07:33:08;;;;;;;16.80;11.10;;;;;;;;;;5096594;28;20076;-58
2023/09/06 07:35:34;;;;;;;14.98;12.40;;;;;;;;;;5108738;28;20030;-58
2023/09/06 07:38:01;;;;;;;16.38;11.75;;;;;;;;;;5094675;28;20031;-58
2023/09/06 07:40:27;;;;;;;12.60;10.05;;;;;;;;;;5082074;28;20088;-58
2023/09/06 07:42:53;;;;;;;15.60;11.90;;;;;;;;;;5104639;28;20031;-58
2023/09/06 07:45:19;;;;;;;14.57;10.48;;;;;;;;;;5094024;28;20547;-58
2023/09/06 07:47:45;;;;;;;16.33;10.15;;;;;;;;;;5102120;28;20496;-58
2023/09/06 07:50:11;;;;;;;12.68;9.57;;;;;;;;;;5081930;28;20036;-58
2023/09/06 07:52:37;;;;;;;15.00;9.93;;;;;;;;;;5108361;28;20470;-58
2023/09/06 07:55:04;;;;;;;13.45;9.23;;;;;;;;;;5094060;28;20422;-57
2023/09/06 07:57:30;;;;;;;11.23;9.00;;;;;;;;;;5081685;28;20023;-58
2023/09/06 07:59:56;;;;;;;10.18;7.70;;;;;;;;;;5104040;28;20070;-58
2023/09/06 08:02:22;;;;;;;9.60;8.23;;;;;;;;;;5094106;28;20048;-58
2023/09/06 08:04:50;;;;;;;12.05;8.50;;;;;;;;;;5094071;28;20028;-58
2023/09/06 08:07:16;;;;;;;10.50;8.13;;;;;;;;;;5093699;28;20020;-58
2023/09/06 08:09:42;;;;;;;13.95;9.88;;;;;;;;;;5093847;28;20047;-57
2023/09/06 08:12:09;;;;;;;12.75;8.52;;;;;;;;;;5093633;28;20077;-60
2023/09/06 08:14:35;;;;;;;9.60;7.68;;;;;;;;;;5093553;28;20024;-57
2023/09/06 08:17:01;;;;;;;8.70;6.50;;;;;;;;;;5093641;28;20020;-57
2023/09/06 08:19:27;;;;;;;12.80;7.70;;;;;;;;;;5086877;28;20020;-58
2023/09/06 08:21:53;;;;;;;11.98;8.75;;;;;;;;;;5093429;28;20384;-57
2023/09/06 08:24:19;;;;;;;10.75;8.70;;;;;;;;;;5097281;28;20081;-57
2023/09/06 08:26:48;;;;;;;10.75;8.05;;;;;;;;;;5093430;28;20089;-58
2023/09/06 08:29:15;;;;;;;12.30;7.00;;;;;;;;;;5093639;28;20043;-57
2023/09/06 08:31:41;;;;;;;12.20;6.72;;;;;;;;;;5099146;28;20046;-57
2023/09/06 08:34:07;;;;;;;6.47;5.18;;;;;;;;;;5109553;28;20031;-58
2023/09/06 08:36:33;;;;;;;7.65;5.60;;;;;;;;;;5098949;28;20055;-57
2023/09/06 08:39:00;;;;;;;5.90;5.07;;;;;;;;;;5084325;27;20026;-58
2023/09/06 08:41:26;;;;;;;7.97;5.65;;;;;;;;;;5109758;27;20016;-57
2023/09/06 08:43:53;;;;;;;12.68;6.00;;;;;;;;;;5093274;28;20377;-57
2023/09/06 08:46:22;;;;;;;11.02;6.85;;;;;;;;;;5092996;28;20051;-57
2023/09/06 08:48:49;;;;;;;8.93;6.18;;;;;;;;;;5093031;28;20035;-57
2023/09/06 08:51:16;;;;;;;6.40;5.80;;;;;;;;;;5093317;28;20047;-57
2023/09/06 08:53:43;;;;;;;11.32;5.55;;;;;;;;;;5079955;28;20124;-55
2023/09/06 08:56:10;;;;;;;8.68;4.90;;;;;;;;;;5093073;28;20103;-57
2023/09/06 08:58:36;;;;;;;8.50;5.88;;;;;;;;;;5093072;28;20017;-58
2023/09/06 09:01:05;;;;;;;9.65;7.10;;;;;;;;;;5093191;28;20020;-58
2023/09/06 09:03:31;;;;;;;10.60;6.43;;;;;;;;;;5093251;28;20028;-58
2023/09/06 09:05:59;;;;;;;8.25;5.57;;;;;;;;;;5092856;28;20031;-58
2023/09/06 09:08:27;;;;;;;6.18;5.60;;;;;;;;;;5095030;28;20477;-57
2023/09/06 09:11:07;;;;;;;7.82;5.78;;;;;;;;;;5122050;28;20023;-59
2023/09/06 09:13:33;;;;;;;8.45;4.65;;;;;;;;;;5124060;28;20024;-59
2023/09/06 09:15:59;;;;;;;6.65;4.30;;;;;;;;;;5105242;28;20020;-59
2023/09/06 09:18:25;;;;;;;7.68;5.57;;;;;;;;;;5100134;28;20578;-58
2023/09/06 09:20:51;;;;;;;7.72;4.28;;;;;;;;;;5099797;28;20020;-59
2023/09/06 09:23:17;;;;;;;8.95;5.63;;;;;;;;;;5092745;28;20020;-58
2023/09/06 09:25:47;;;;;;;4.88;4.13;;;;;;;;;;5093093;28;20130;-59
2023/09/06 09:28:14;;;;;;;9.18;5.18;;;;;;;;;;5108815;28;20467;-59
2023/09/06 09:30:40;;;;;;;11.32;5.50;;;;;;;;;;5103036;28;20032;-59
2023/09/06 09:33:07;;;;;;;8.20;5.63;;;;;;;;;;5092885;28;20027;-59
2023/09/06 09:35:34;;;;;;;5.75;4.82;;;;;;;;;;5092790;28;20032;-59
2023/09/06 09:38:02;;;;;;;8.63;5.63;;;;;;;;;;5092584;28;20520;-59
2023/09/06 09:40:34;;;;;;;6.75;5.32;;;;;;;;;;5092944;28;20035;-59
2023/09/06 09:43:02;;;;;;;7.60;5.18;;;;;;;;;;5092564;28;20094;-59
2023/09/06 09:45:29;;;;;;;6.03;5.07;;;;;;;;;;5106816;28;20028;-58
2023/09/06 09:47:56;;;;;;;9.10;6.00;;;;;;;;;;5095598;28;20059;-60
2023/09/06 09:50:22;;;;;;;9.68;6.28;;;;;;;;;;5096379;28;20686;-59
2023/09/06 09:52:48;;;;;;;8.98;5.43;;;;;;;;;;5096481;28;20020;-59
2023/09/06 09:55:16;;;;;;;11.00;8.25;;;;;;;;;;5096377;28;20099;-59
2023/09/06 09:57:46;;;;;;;11.63;7.53;;;;;;;;;;5104305;28;20034;-52
2023/09/06 10:00:13;;;;;;;16.50;6.80;;;;;;;;;;5112043;28;20099;-65
2023/09/06 10:02:41;;;;;;;8.80;5.28;;;;;;;;;;5096481;28;20016;-60
2023/09/06 10:05:08;;;;;;;9.82;5.10;;;;;;;;;;5095557;28;20126;-59
2023/09/06 10:07:35;;;;;;;8.68;5.22;;;;;;;;;;5095770;28;20470;-57
2023/09/06 10:10:02;;;;;;;9.60;5.38;;;;;;;;;;5095983;28;20385;-60
2023/09/06 10:12:28;;;;;;;9.00;4.78;;;;;;;;;;5096063;28;20020;-55
2023/09/06 10:14:55;;;;;;;5.95;4.90;;;;;;;;;;5095852;28;20430;-62
2023/09/06 10:17:21;;;;;;;6.10;5.40;;;;;;;;;;5089738;27;20019;-62
2023/09/06 10:19:47;;;;;;;8.82;5.30;;;;;;;;;;5120344;27;20377;-62
2023/09/06 10:22:14;;;;;;;19.05;6.35;;;;;;;;;;5095389;28;20020;-50
2023/09/06 10:24:43;;;;;;;24.33;7.47;;;;;;;;;;5095513;28;20091;-54
2023/09/06 10:27:16;;;;;;;130.43;20.90;;;;;;;;;;5110116;28;20482;-58
2023/09/06 10:29:50;;;;;;;22.60;7.03;;;;;;;;;;5095925;28;20044;-59
2023/09/06 10:32:16;;;;;;;8.57;5.72;;;;;;;;;;5095484;28;20027;-59
2023/09/06 10:34:45;;;;;;;7.40;4.13;;;;;;;;;;5095600;28;20359;-59
2023/09/06 10:37:11;;;;;;;9.68;5.80;;;;;;;;;;5095454;28;20355;-60
2023/09/06 10:39:51;;;;;;;8.15;5.85;;;;;;;;;;5086783;28;20558;-57
2023/09/06 10:42:17;;;;;;;6.05;5.45;;;;;;;;;;5110469;27;20093;-57
2023/09/06 10:45:13;;;;;;;8.25;5.47;;;;;;;;;;5112071;28;20024;-58
2023/09/06 10:47:40;;;;;;;6.75;4.95;;;;;;;;;;5080644;28;20134;-57
2023/09/06 10:50:18;;;;;;;11.68;7.68;;;;;;;;;;5119377;27;20028;-58
2023/09/06 10:52:44;;;;;;;8.20;6.60;;;;;;;;;;5098846;27;20468;-58
2023/09/06 10:55:20;;;;;;;8.48;6.07;;;;;;;;;;5125553;27;20026;-58
2023/09/06 10:57:47;;;;;;;6.60;5.50;;;;;;;;;;5100254;28;20035;-60
2023/09/06 11:00:18;;;;;;;6.13;5.13;;;;;;;;;;5114009;27;20024;-56
2023/09/06 11:02:44;;;;;;;6.22;5.03;;;;;;;;;;5115380;28;20024;-57
2023/09/06 11:05:14;;;;;;;7.60;5.95;;;;;;;;;;5094777;28;20020;-57
2023/09/06 11:07:41;;;;;;;8.77;5.40;;;;;;;;;;5114102;27;20427;-57
2023/09/06 11:10:09;;;;;;;7.38;5.70;;;;;;;;;;5100812;28;20032;-58
2023/09/06 11:12:35;;;;;;;6.28;5.65;;;;;;;;;;5107401;28;20105;-57
2023/09/06 11:15:01;;;;;;;5.65;5.10;;;;;;;;;;5094181;28;20031;-57
2023/09/06 11:17:28;;;;;;;6.43;5.75;;;;;;;;;;5129228;27;20032;-58
2023/09/06 11:19:54;;;;;;;9.65;5.82;;;;;;;;;;5112499;28;20073;-57
2023/09/06 11:22:20;;;;;;;6.95;5.45;;;;;;;;;;5112604;28;20020;-56
2023/09/06 11:24:48;;;;;;;7.10;6.32;;;;;;;;;;5113856;28;20066;-58
2023/09/06 11:27:17;;;;;;;6.88;5.22;;;;;;;;;;5100423;28;20024;-59
2023/09/06 11:42:00;;;;;;;10.43;5.32;;;;;;;;;;5097231;28;20035;-59
2023/09/06 11:44:27;;;;;;;9.75;5.88;;;;;;;;;;5094210;28;20028;-59
2023/09/06 11:46:53;;;;;;;7.88;5.13;;;;;;;;;;5094045;28;20120;-59
2023/09/06 11:49:22;;;;;;;6.18;5.32;;;;;;;;;;5093951;28;20028;-60
2023/09/06 11:51:49;;;;;;;11.48;6.00;;;;;;;;;;5096107;28;20473;-60
2023/09/06 11:54:15;;;;;;;6.13;5.40;;;;;;;;;;5099081;28;20512;-57
2023/09/06 11:56:47;;;;;;;6.60;4.95;;;;;;;;;;5092462;28;20032;-57
2023/09/06 11:59:14;;;;;;;7.13;4.43;;;;;;;;;;5113139;28;20111;-57
2023/09/06 12:01:40;;;;;;;8.35;5.28;;;;;;;;;;5094338;28;20030;-57
2023/09/06 12:04:10;;;;;;;7.43;5.00;;;;;;;;;;5102605;28;20031;-58
2023/09/06 12:06:39;;;;;;;5.68;4.75;;;;;;;;;;5100719;27;20425;-58
2023/09/06 12:09:12;;;;;;;6.07;4.97;;;;;;;;;;5112660;27;20110;-58
2023/09/06 12:11:38;;;;;;;6.43;4.28;;;;;;;;;;5095620;27;20028;-58
2023/09/06 12:14:04;;;;;;;5.55;4.75;;;;;;;;;;5121998;27;20024;-59
2023/09/06 12:16:31;;;;;;;8.40;5.53;;;;;;;;;;5109957;27;20031;-58
2023/09/06 12:18:57;;;;;;;7.68;4.90;;;;;;;;;;5117944;27;20089;-59
2023/09/06 12:21:23;;;;;;;11.45;5.70;;;;;;;;;;5090462;28;20106;-59
2023/09/06 12:23:49;;;;;;;8.68;5.70;;;;;;;;;;5090743;28;20117;-59
2023/09/06 12:26:16;;;;;;;6.20;4.75;;;;;;;;;;5089862;28;20032;-59
2023/09/06 12:28:42;;;;;;;6.57;5.35;;;;;;;;;;5089806;28;20036;-59
2023/09/06 12:31:09;;;;;;;6.93;4.93;;;;;;;;;;5109033;27;20053;-59
2023/09/06 12:33:35;;;;;;;9.35;5.25;;;;;;;;;;5095450;28;20023;-59
2023/09/06 12:36:03;;;;;;;5.70;5.22;;;;;;;;;;5091736;28;20097;-61
2023/09/06 12:38:30;;;;;;;6.65;5.65;;;;;;;;;;5091683;28;20470;-61
2023/09/06 12:40:56;;;;;;;6.07;5.57;;;;;;;;;;5091884;28;20024;-59
2023/09/06 12:43:24;;;;;;;5.93;5.13;;;;;;;;;;5091510;28;20055;-59
2023/09/06 12:45:50;;;;;;;6.47;5.75;;;;;;;;;;5092202;28;20028;-58
2023/09/06 12:48:16;;;;;;;8.30;5.97;;;;;;;;;;5092840;28;20043;-59
2023/09/06 12:50:43;;;;;;;6.25;5.68;;;;;;;;;;5093279;28;20346;-60
2023/09/06 12:53:09;;;;;;;6.75;6.05;;;;;;;;;;5107316;28;20027;-60
2023/09/06 12:55:36;;;;;;;6.35;5.72;;;;;;;;;;5095144;28;20032;-60
2023/09/06 12:58:04;;;;;;;6.45;5.85;;;;;;;;;;5096387;28;21291;-60
2023/09/06 13:00:30;;;;;;;7.10;6.40;;;;;;;;;;5092959;28;20016;-60
2023/09/06 13:02:56;;;;;;;6.57;5.95;;;;;;;;;;5092687;28;20031;-60
2023/09/06 13:05:23;;;;;;;6.72;5.90;;;;;;;;;;5092951;28;20481;-59
2023/09/06 13:07:49;;;;;;;7.10;6.03;;;;;;;;;;5092953;28;20024;-60
2023/09/06 13:10:15;;;;;;;6.22;5.65;;;;;;;;;;5092745;28;20028;-60
2023/09/06 13:12:42;;;;;;;6.82;6.22;;;;;;;;;;5092771;28;20028;-60
2023/09/06 13:15:08;;;;;;;5.93;5.43;;;;;;;;;;5092656;28;20538;-60
2023/09/06 13:17:35;;;;;;;10.98;6.15;;;;;;;;;;5092960;28;20024;-60
2023/09/06 13:20:02;;;;;;;8.80;6.88;;;;;;;;;;5092971;28;20051;-60
2023/09/06 13:22:28;;;;;;;7.40;6.70;;;;;;;;;;5095465;28;20020;-60
2023/09/06 13:24:54;;;;;;;8.15;6.57;;;;;;;;;;5096913;28;20020;-60
2023/09/06 13:27:21;;;;;;;7.05;6.22;;;;;;;;;;5099045;28;20480;-60
2023/09/06 13:29:48;;;;;;;6.47;5.80;;;;;;;;;;5104781;28;20032;-60
2023/09/06 13:32:14;;;;;;;7.45;6.50;;;;;;;;;;5096806;28;20016;-60
2023/09/06 13:34:41;;;;;;;8.52;6.95;;;;;;;;;;5096738;28;20024;-59
2023/09/06 13:37:07;;;;;;;6.97;6.20;;;;;;;;;;5096608;28;20020;-59
2023/09/06 13:39:33;;;;;;;7.55;6.93;;;;;;;;;;5096765;28;20512;-59
2023/09/06 13:42:02;;;;;;;7.47;6.85;;;;;;;;;;5097909;28;20028;-59
2023/09/06 13:44:33;;;;;;;6.90;6.18;;;;;;;;;;5096722;28;20028;-59
2023/09/06 13:46:59;;;;;;;7.10;6.40;;;;;;;;;;5096487;28;20052;-59
2023/09/06 13:49:25;;;;;;;9.27;6.00;;;;;;;;;;5128839;27;20031;-59
2023/09/06 13:51:51;;;;;;;6.90;6.25;;;;;;;;;;5121236;27;20050;-60
2023/09/06 13:54:17;;;;;;;6.20;5.68;;;;;;;;;;5096693;28;20458;-60
2023/09/06 13:56:44;;;;;;;6.05;5.55;;;;;;;;;;5096419;28;20028;-60
2023/09/06 13:59:10;;;;;;;9.15;6.28;;;;;;;;;;5096516;28;20069;-60
2023/09/06 14:01:36;;;;;;;6.72;6.22;;;;;;;;;;5096295;28;20027;-60
2023/09/06 14:04:05;;;;;;;6.93;6.32;;;;;;;;;;5096127;28;20043;-60
2023/09/06 14:06:31;;;;;;;6.63;6.00;;;;;;;;;;5096111;28;20024;-60
2023/09/06 14:08:57;;;;;;;6.30;5.70;;;;;;;;;;5096082;28;20028;-60
2023/09/06 14:11:23;;;;;;;6.10;5.53;;;;;;;;;;5095916;28;20531;-60
2023/09/06 14:13:49;;;;;;;7.85;6.68;;;;;;;;;;5108217;27;20051;-60
2023/09/06 14:16:15;;;;;;;5.88;5.38;;;;;;;;;;5122959;27;20465;-60
2023/09/06 14:18:41;;;;;;;7.07;6.47;;;;;;;;;;5117243;27;20020;-60
2023/09/06 14:21:07;;;;;;;6.78;6.15;;;;;;;;;;5113995;28;20024;-60
2023/09/06 14:23:33;;;;;;;6.20;5.68;;;;;;;;;;5100544;28;20496;-60
2023/09/06 14:25:59;;;;;;;6.60;6.00;;;;;;;;;;5113269;28;20026;-60
2023/09/06 14:28:25;;;;;;;6.40;5.75;;;;;;;;;;5113921;28;20034;-60
2023/09/06 14:30:51;;;;;;;6.57;5.75;;;;;;;;;;5095811;28;20028;-60
2023/09/06 14:33:18;;;;;;;5.95;5.22;;;;;;;;;;5095420;28;20024;-60
2023/09/06 14:35:44;;;;;;;7.82;6.40;;;;;;;;;;5107820;27;20023;-60
2023/09/06 14:38:12;;;;;;;5.88;5.38;;;;;;;;;;5111605;27;20527;-60
2023/09/06 14:40:41;;;;;;;5.60;4.80;;;;;;;;;;5095515;28;20019;-60
2023/09/06 14:43:07;;;;;;;5.78;5.28;;;;;;;;;;5095635;28;20046;-60
2023/09/06 14:45:34;;;;;;;6.63;5.80;;;;;;;;;;5095599;28;20028;-60
2023/09/06 14:48:03;;;;;;;6.15;5.55;;;;;;;;;;5095232;28;20452;-60